Klondike, Illinois
Current Conditions -  °F | °C
As of 12:15 AM on Thursday 23 Oct 2014 (Local Time) from KCIR Reporting Station
Moderate Fog Moderate Fog  
Wind Chill: 43°   Ceiling: 500
Heat Index: 43°   Visibility: 0.5mi
Dew Point: 40°   Wind: 0mph
Humidity: 88%   Direction: NA
Pressure: 30.23"   Gusts: NA
Location:  37.048°N, 89.2036°W
Report Text: KCIR 230515Z AUTO 00000KT 1/2SM FG VV005 06/04 A3023 RMK AO2 P0001 T00610042
Loading
Personal Weather Stations






























Interactive Weather Map
Tropical Storm Tracking
New forecast layout! Learn more

10-Day Weather Forecast

Advertisements
Track Severe Weather on mobile